Time;durP1;ratioP1;P1;durP2;ratioP2;P2;SDS_P1;SDS_P2;PMS_P1;PMS_P2;Temp;Humidity;BMP_temperature;BMP_pressure;BME280_temperature;BME280_humidity;BME280_pressure;Samples;Min_cycle;Max_cycle;Signal;HPM_P1;HPM_P2
2023/11/07 00:01:10;;;;;;;12.98;4.40;;;;;;;;;;5115955;28;20269;-37
2023/11/07 00:03:35;;;;;;;12.47;4.17;;;;;;;;;;5097219;28;20019;-37
2023/11/07 00:06:01;;;;;;;12.82;4.07;;;;;;;;;;5097146;28;20336;-38
2023/11/07 00:08:26;;;;;;;11.13;4.15;;;;;;;;;;5115309;28;20015;-37
2023/11/07 00:10:51;;;;;;;10.87;3.97;;;;;;;;;;5115906;28;20023;-37
2023/11/07 00:13:16;;;;;;;9.67;3.70;;;;;;;;;;5115184;28;20332;-37
2023/11/07 00:15:42;;;;;;;8.35;3.72;;;;;;;;;;5115148;28;20269;-37
2023/11/07 00:18:07;;;;;;;10.15;3.88;;;;;;;;;;5115144;28;20068;-37
2023/11/07 00:20:32;;;;;;;16.02;4.18;;;;;;;;;;5115622;28;20034;-37
2023/11/07 00:22:57;;;;;;;11.60;3.70;;;;;;;;;;5115022;28;20019;-37
2023/11/07 00:25:25;;;;;;;12.35;3.95;;;;;;;;;;5114663;28;20253;-37
2023/11/07 00:27:50;;;;;;;10.48;3.75;;;;;;;;;;5115207;28;20077;-37
2023/11/07 00:30:15;;;;;;;8.65;3.80;;;;;;;;;;5114872;28;20019;-37
2023/11/07 00:32:41;;;;;;;13.75;3.78;;;;;;;;;;5114819;28;20455;-37
2023/11/07 00:35:06;;;;;;;11.83;3.50;;;;;;;;;;5115351;28;20027;-37
2023/11/07 00:37:31;;;;;;;16.70;3.60;;;;;;;;;;5114733;28;20257;-36
2023/11/07 00:39:56;;;;;;;7.55;3.15;;;;;;;;;;5115187;28;20015;-37
2023/11/07 00:42:22;;;;;;;17.23;4.47;;;;;;;;;;5114747;28;20073;-37
2023/11/07 00:44:47;;;;;;;13.00;4.57;;;;;;;;;;5114883;28;20102;-37
2023/11/07 00:47:12;;;;;;;10.27;3.10;;;;;;;;;;5114750;28;20047;-37
2023/11/07 00:49:37;;;;;;;12.97;3.30;;;;;;;;;;5096371;28;20051;-37
2023/11/07 00:52:03;;;;;;;10.13;3.30;;;;;;;;;;5114332;28;20289;-37
2023/11/07 00:54:28;;;;;;;7.22;3.20;;;;;;;;;;5114763;28;20343;-37
2023/11/07 00:56:53;;;;;;;11.57;3.60;;;;;;;;;;5114397;28;20024;-37
2023/11/07 00:59:18;;;;;;;9.82;3.33;;;;;;;;;;5096035;28;20276;-37
2023/11/07 01:01:43;;;;;;;12.07;3.17;;;;;;;;;;5114330;28;20026;-37
2023/11/07 01:04:09;;;;;;;12.57;3.70;;;;;;;;;;5114292;28;20405;-37
2023/11/07 01:06:35;;;;;;;7.95;3.22;;;;;;;;;;5114488;28;20019;-37
2023/11/07 01:09:00;;;;;;;10.00;3.17;;;;;;;;;;5114229;28;20016;-37
2023/11/07 01:11:25;;;;;;;9.55;3.25;;;;;;;;;;5114109;28;20266;-37
2023/11/07 01:13:50;;;;;;;11.57;3.20;;;;;;;;;;5114185;28;20020;-37
2023/11/07 01:16:15;;;;;;;9.17;3.30;;;;;;;;;;5114107;28;20249;-37
2023/11/07 01:18:40;;;;;;;12.77;3.33;;;;;;;;;;5114305;28;20267;-37
2023/11/07 01:21:06;;;;;;;8.87;3.30;;;;;;;;;;5095790;28;20377;-38
2023/11/07 01:23:31;;;;;;;8.27;3.03;;;;;;;;;;5114032;28;20246;-37
2023/11/07 01:25:56;;;;;;;11.43;3.23;;;;;;;;;;5114506;28;20015;-37
2023/11/07 01:28:21;;;;;;;10.52;3.70;;;;;;;;;;5113925;28;20261;-37
2023/11/07 01:30:48;;;;;;;9.07;3.70;;;;;;;;;;5114427;28;20031;-37
2023/11/07 01:33:13;;;;;;;7.97;3.25;;;;;;;;;;5114499;28;20058;-37
2023/11/07 01:35:38;;;;;;;11.85;3.60;;;;;;;;;;5114086;28;20059;-37
2023/11/07 01:38:03;;;;;;;9.47;3.20;;;;;;;;;;5113006;28;20401;-37
2023/11/07 01:40:29;;;;;;;11.00;3.03;;;;;;;;;;5113708;28;20381;-37
2023/11/07 01:42:55;;;;;;;11.15;3.40;;;;;;;;;;5114030;28;20596;-37
2023/11/07 01:45:20;;;;;;;10.88;3.60;;;;;;;;;;5113773;28;20447;-37
2023/11/07 01:47:46;;;;;;;10.52;3.20;;;;;;;;;;5113717;28;20099;-37
2023/11/07 01:50:12;;;;;;;10.77;3.22;;;;;;;;;;5113669;28;20064;-37
2023/11/07 01:52:38;;;;;;;10.05;3.33;;;;;;;;;;5113886;28;20097;-37
2023/11/07 01:55:05;;;;;;;9.10;3.13;;;;;;;;;;5113726;28;20076;-37
2023/11/07 01:57:31;;;;;;;14.23;3.40;;;;;;;;;;5096154;28;20110;-37
2023/11/07 01:59:56;;;;;;;8.63;3.00;;;;;;;;;;5114645;28;20102;-37
2023/11/07 02:02:22;;;;;;;8.60;3.25;;;;;;;;;;5113595;28;20016;-37
2023/11/07 02:04:47;;;;;;;10.63;3.10;;;;;;;;;;5113896;28;20055;-37
2023/11/07 02:07:12;;;;;;;9.17;3.20;;;;;;;;;;5114168;28;20019;-37
2023/11/07 02:09:38;;;;;;;11.70;3.47;;;;;;;;;;5113540;28;20669;-38
2023/11/07 02:12:04;;;;;;;9.88;3.22;;;;;;;;;;5113430;28;20076;-42
2023/11/07 02:14:30;;;;;;;11.93;3.08;;;;;;;;;;5113535;28;20026;-37
2023/11/07 02:16:55;;;;;;;13.13;3.10;;;;;;;;;;5113758;28;20482;-36
2023/11/07 02:19:21;;;;;;;12.73;3.60;;;;;;;;;;5113414;28;20144;-37
2023/11/07 02:21:46;;;;;;;12.05;3.92;;;;;;;;;;5113712;28;20281;-37
2023/11/07 02:24:11;;;;;;;7.85;2.67;;;;;;;;;;5113423;28;20016;-37
2023/11/07 02:26:36;;;;;;;10.65;3.17;;;;;;;;;;5113392;28;20023;-37
2023/11/07 02:29:02;;;;;;;8.93;3.13;;;;;;;;;;5096004;28;20031;-37
2023/11/07 02:31:27;;;;;;;11.07;3.00;;;;;;;;;;5113362;28;20809;-37
2023/11/07 02:33:53;;;;;;;11.37;3.10;;;;;;;;;;5113416;28;20038;-37
2023/11/07 02:36:18;;;;;;;8.80;2.88;;;;;;;;;;5113322;28;20306;-37
2023/11/07 02:38:43;;;;;;;9.63;3.10;;;;;;;;;;5113313;28;20055;-37
2023/11/07 02:41:08;;;;;;;13.67;3.57;;;;;;;;;;5113167;28;20138;-37
2023/11/07 02:43:34;;;;;;;10.43;3.15;;;;;;;;;;5113808;28;20257;-38
2023/11/07 02:45:59;;;;;;;10.27;3.03;;;;;;;;;;5113291;28;20080;-37
2023/11/07 02:48:24;;;;;;;11.53;3.20;;;;;;;;;;5115157;28;20345;-37
2023/11/07 02:50:49;;;;;;;10.37;2.83;;;;;;;;;;5116933;28;20246;-37
2023/11/07 02:53:15;;;;;;;8.27;3.35;;;;;;;;;;5116759;28;20286;-38
2023/11/07 02:55:40;;;;;;;5.93;2.75;;;;;;;;;;5117031;28;20128;-37
2023/11/07 02:58:06;;;;;;;9.88;3.50;;;;;;;;;;5116751;28;20374;-37
2023/11/07 03:00:32;;;;;;;11.15;2.92;;;;;;;;;;5116897;28;20027;-37
2023/11/07 03:02:58;;;;;;;11.98;3.60;;;;;;;;;;5116896;28;20366;-38
2023/11/07 03:05:23;;;;;;;10.38;3.30;;;;;;;;;;5116481;28;20019;-38
2023/11/07 03:07:48;;;;;;;11.27;3.22;;;;;;;;;;5116831;28;20027;-38
2023/11/07 03:10:14;;;;;;;10.07;3.08;;;;;;;;;;5116478;28;20017;-37
2023/11/07 03:12:40;;;;;;;12.93;3.47;;;;;;;;;;5116654;28;20019;-38
2023/11/07 03:15:05;;;;;;;11.80;3.22;;;;;;;;;;5116378;28;20119;-37
2023/11/07 03:17:30;;;;;;;11.55;3.17;;;;;;;;;;5116906;28;20020;-37
2023/11/07 03:19:55;;;;;;;8.52;2.97;;;;;;;;;;5116700;28;20110;-38
2023/11/07 03:22:21;;;;;;;7.57;3.08;;;;;;;;;;5116180;28;20098;-38
2023/11/07 03:24:47;;;;;;;11.18;3.05;;;;;;;;;;5116177;28;20041;-38
2023/11/07 03:27:12;;;;;;;9.32;3.40;;;;;;;;;;5116444;28;20500;-38
2023/11/07 03:29:37;;;;;;;8.52;3.33;;;;;;;;;;5116118;28;20040;-38
2023/11/07 03:32:03;;;;;;;14.38;3.45;;;;;;;;;;5116342;28;20046;-37
2023/11/07 03:34:28;;;;;;;8.25;3.20;;;;;;;;;;5116305;28;20024;-38
2023/11/07 03:36:53;;;;;;;14.57;3.33;;;;;;;;;;5115986;28;20022;-37
2023/11/07 03:39:19;;;;;;;8.80;3.30;;;;;;;;;;5116440;28;20242;-38
2023/11/07 03:41:46;;;;;;;11.23;3.50;;;;;;;;;;5116457;28;20330;-37
2023/11/07 03:44:11;;;;;;;16.42;3.80;;;;;;;;;;5115793;28;20019;-37
2023/11/07 03:46:36;;;;;;;10.27;3.53;;;;;;;;;;5116408;28;20012;-37
2023/11/07 03:49:01;;;;;;;14.23;3.45;;;;;;;;;;5116345;28;20250;-37
2023/11/07 03:51:27;;;;;;;11.90;3.75;;;;;;;;;;5116160;28;20019;-38
2023/11/07 03:53:53;;;;;;;9.63;3.75;;;;;;;;;;5115499;28;20425;-38
2023/11/07 03:56:19;;;;;;;7.88;3.17;;;;;;;;;;5115961;28;20011;-38
2023/11/07 03:58:45;;;;;;;13.05;3.65;;;;;;;;;;5115501;28;20051;-38
2023/11/07 04:01:10;;;;;;;11.98;3.40;;;;;;;;;;5114864;28;20095;-38
2023/11/07 04:03:35;;;;;;;13.40;3.90;;;;;;;;;;5115463;28;20418;-38
2023/11/07 04:06:00;;;;;;;13.95;3.67;;;;;;;;;;5115592;28;20016;-37
2023/11/07 04:08:25;;;;;;;8.53;3.40;;;;;;;;;;5115319;28;20047;-37
2023/11/07 04:10:51;;;;;;;7.90;3.70;;;;;;;;;;5115304;28;20249;-38
2023/11/07 04:13:16;;;;;;;8.80;3.30;;;;;;;;;;5115172;28;20257;-37
2023/11/07 04:15:42;;;;;;;9.20;3.55;;;;;;;;;;5115160;28;20016;-37
2023/11/07 04:18:09;;;;;;;12.63;3.75;;;;;;;;;;5115129;28;20038;-38
2023/11/07 04:20:35;;;;;;;6.78;3.15;;;;;;;;;;5115052;28;20019;-37
2023/11/07 04:23:01;;;;;;;12.40;3.40;;;;;;;;;;5115371;28;20019;-38
2023/11/07 04:25:26;;;;;;;10.00;3.60;;;;;;;;;;5115020;28;20469;-38
2023/11/07 04:27:51;;;;;;;8.30;3.40;;;;;;;;;;5115574;28;20333;-37
2023/11/07 04:30:17;;;;;;;8.00;3.00;;;;;;;;;;5115204;28;20262;-37
2023/11/07 04:32:42;;;;;;;8.82;3.28;;;;;;;;;;5115163;28;20027;-38
2023/11/07 04:35:09;;;;;;;11.60;3.40;;;;;;;;;;5115143;28;20023;-38
2023/11/07 04:37:36;;;;;;;6.90;3.03;;;;;;;;;;5115086;28;20012;-38
2023/11/07 04:40:02;;;;;;;11.57;3.00;;;;;;;;;;5114709;28;20016;-38
2023/11/07 04:42:27;;;;;;;6.82;3.00;;;;;;;;;;5114949;28;20046;-38
2023/11/07 04:44:52;;;;;;;10.60;3.40;;;;;;;;;;5115246;28;20015;-37
2023/11/07 04:47:19;;;;;;;14.40;3.67;;;;;;;;;;5114948;28;20256;-44
2023/11/07 04:49:45;;;;;;;5.45;2.92;;;;;;;;;;5114900;28;20370;-38
2023/11/07 04:52:11;;;;;;;6.55;2.90;;;;;;;;;;5114607;28;20031;-38
2023/11/07 04:54:38;;;;;;;8.90;2.90;;;;;;;;;;5114511;28;20135;-38
2023/11/07 04:57:04;;;;;;;9.00;3.45;;;;;;;;;;5114676;28;20053;-37
2023/11/07 04:59:29;;;;;;;8.93;2.88;;;;;;;;;;5114612;28;20474;-37
2023/11/07 05:01:55;;;;;;;10.13;2.88;;;;;;;;;;5096081;28;20042;-37
2023/11/07 05:04:20;;;;;;;7.50;2.97;;;;;;;;;;5114592;28;20011;-38
2023/11/07 05:06:46;;;;;;;12.23;3.30;;;;;;;;;;5114300;28;20026;-37
2023/11/07 05:09:12;;;;;;;9.10;3.00;;;;;;;;;;5114735;28;20257;-37
2023/11/07 05:11:38;;;;;;;5.28;3.00;;;;;;;;;;5113983;28;20026;-38
2023/11/07 05:14:03;;;;;;;7.30;3.08;;;;;;;;;;5114739;28;20054;-38
2023/11/07 05:16:28;;;;;;;8.65;3.10;;;;;;;;;;5114149;28;20511;-38
2023/11/07 05:18:53;;;;;;;12.50;3.47;;;;;;;;;;5114678;28;20374;-37
2023/11/07 05:21:18;;;;;;;7.63;3.20;;;;;;;;;;5114032;28;20364;-38
2023/11/07 05:23:44;;;;;;;9.95;3.25;;;;;;;;;;5114078;28;20261;-38
2023/11/07 05:26:10;;;;;;;7.13;2.95;;;;;;;;;;5114116;28;20404;-38
2023/11/07 05:28:36;;;;;;;8.60;3.40;;;;;;;;;;5114220;28;20012;-38
2023/11/07 05:31:01;;;;;;;8.93;3.30;;;;;;;;;;5114243;28;20493;-38
2023/11/07 05:33:28;;;;;;;12.02;3.60;;;;;;;;;;5113901;28;20012;-38
2023/11/07 05:35:53;;;;;;;12.35;3.38;;;;;;;;;;5114134;28;20032;-38
2023/11/07 05:38:18;;;;;;;8.20;3.40;;;;;;;;;;5113830;28;20022;-38
2023/11/07 05:40:43;;;;;;;10.60;3.50;;;;;;;;;;5113792;28;20356;-38
2023/11/07 05:43:08;;;;;;;8.35;3.63;;;;;;;;;;5095861;28;20258;-38
2023/11/07 05:45:33;;;;;;;8.93;3.70;;;;;;;;;;5113805;28;20014;-38
2023/11/07 05:47:59;;;;;;;10.45;4.00;;;;;;;;;;5114310;28;20252;-38
2023/11/07 05:50:25;;;;;;;10.02;3.60;;;;;;;;;;5113756;28;20268;-38
2023/11/07 05:52:50;;;;;;;10.65;3.53;;;;;;;;;;5113823;28;20038;-38
2023/11/07 05:55:16;;;;;;;9.68;4.18;;;;;;;;;;5114464;28;20422;-40
2023/11/07 05:57:41;;;;;;;9.93;3.53;;;;;;;;;;5114267;28;20015;-38
2023/11/07 06:00:08;;;;;;;10.32;4.25;;;;;;;;;;5113877;28;20024;-38
2023/11/07 06:02:33;;;;;;;8.18;3.80;;;;;;;;;;5113916;28;20023;-38
2023/11/07 06:04:58;;;;;;;11.27;4.32;;;;;;;;;;5113608;28;20031;-38
2023/11/07 06:07:24;;;;;;;10.75;4.18;;;;;;;;;;5114155;28;20016;-38
2023/11/07 06:09:49;;;;;;;8.45;3.83;;;;;;;;;;5114077;28;20027;-38
2023/11/07 06:12:14;;;;;;;10.57;4.23;;;;;;;;;;5114028;28;20030;-38
2023/11/07 06:14:40;;;;;;;8.50;4.30;;;;;;;;;;5113840;28;20779;-38
2023/11/07 06:17:06;;;;;;;9.07;4.00;;;;;;;;;;5095205;28;20268;-38
2023/11/07 06:19:31;;;;;;;9.93;4.20;;;;;;;;;;5113315;28;20016;-38
2023/11/07 06:21:56;;;;;;;10.33;4.40;;;;;;;;;;5113722;28;20469;-38
2023/11/07 06:24:21;;;;;;;10.53;3.90;;;;;;;;;;5116530;28;20246;-38
2023/11/07 06:26:47;;;;;;;11.77;4.50;;;;;;;;;;5117616;28;20256;-38
2023/11/07 06:29:15;;;;;;;15.70;4.70;;;;;;;;;;5117837;28;20099;-38
2023/11/07 06:31:43;;;;;;;10.35;4.38;;;;;;;;;;5117268;28;20023;-38
2023/11/07 06:34:10;;;;;;;10.40;4.70;;;;;;;;;;5100090;28;20060;-38
2023/11/07 06:36:35;;;;;;;9.23;4.40;;;;;;;;;;5117100;28;20062;-38
2023/11/07 06:39:00;;;;;;;8.33;4.17;;;;;;;;;;5117679;28;20047;-38
2023/11/07 06:41:25;;;;;;;11.85;4.50;;;;;;;;;;5117007;28;20269;-38
2023/11/07 06:43:51;;;;;;;10.47;4.63;;;;;;;;;;5117234;28;20027;-38
2023/11/07 06:46:17;;;;;;;8.18;4.68;;;;;;;;;;5116992;28;20600;-38
2023/11/07 06:48:49;;;;;;;9.80;4.93;;;;;;;;;;5117191;28;20107;-38
2023/11/07 06:51:14;;;;;;;8.60;4.57;;;;;;;;;;5116865;28;20031;-38
2023/11/07 06:53:40;;;;;;;9.63;4.15;;;;;;;;;;5116670;28;20032;-39
2023/11/07 06:56:06;;;;;;;11.45;4.57;;;;;;;;;;5116814;28;20020;-38
2023/11/07 06:58:31;;;;;;;11.45;4.75;;;;;;;;;;5116721;28;20019;-38
2023/11/07 07:00:56;;;;;;;12.13;4.70;;;;;;;;;;5117124;28;20031;-38
2023/11/07 07:03:25;;;;;;;14.45;4.72;;;;;;;;;;5098292;28;20413;-38
2023/11/07 07:05:53;;;;;;;10.75;4.82;;;;;;;;;;5116532;28;20034;-38
2023/11/07 07:08:18;;;;;;;14.77;5.80;;;;;;;;;;5117083;28;20019;-38
2023/11/07 07:10:43;;;;;;;13.02;4.65;;;;;;;;;;5116506;28;20027;-38
2023/11/07 07:13:09;;;;;;;12.23;4.20;;;;;;;;;;5116387;28;20037;-38
2023/11/07 07:15:36;;;;;;;13.55;4.50;;;;;;;;;;5116859;28;20353;-38
2023/11/07 07:18:05;;;;;;;13.90;4.47;;;;;;;;;;5116561;28;20347;-38
2023/11/07 07:20:30;;;;;;;10.93;4.38;;;;;;;;;;5097658;28;20053;-38
2023/11/07 07:22:55;;;;;;;12.10;4.83;;;;;;;;;;5116259;28;20015;-38
2023/11/07 07:25:20;;;;;;;12.03;4.83;;;;;;;;;;5116707;28;20249;-38
2023/11/07 07:27:47;;;;;;;11.15;4.43;;;;;;;;;;5116221;28;20331;-38
2023/11/07 07:30:20;;;;;;;11.85;4.88;;;;;;;;;;5116115;28;20019;-38
2023/11/07 07:32:45;;;;;;;;;;;;;;;;;;5116719;28;20020;-38
2023/11/07 07:35:15;;;;;;;10.35;4.32;;;;;;;;;;5116024;28;19925;-38
2023/11/07 07:37:40;;;;;;;8.80;4.57;;;;;;;;;;5116236;28;20026;-39
2023/11/07 07:40:08;;;;;;;9.35;4.72;;;;;;;;;;5116381;28;20102;-38
2023/11/07 07:42:35;;;;;;;13.35;5.07;;;;;;;;;;5116625;28;20039;-38
2023/11/07 07:45:00;;;;;;;9.18;4.53;;;;;;;;;;5115969;28;20034;-38
2023/11/07 07:47:26;;;;;;;8.80;4.17;;;;;;;;;;5116314;28;20098;-38
2023/11/07 07:49:53;;;;;;;11.90;4.07;;;;;;;;;;5115871;28;20756;-39
2023/11/07 07:52:22;;;;;;;12.07;4.20;;;;;;;;;;5115730;28;20366;-38
2023/11/07 07:54:47;;;;;;;6.70;3.72;;;;;;;;;;5115844;28;20545;-37
2023/11/07 07:57:12;;;;;;;9.43;3.97;;;;;;;;;;5115522;28;20055;-38
2023/11/07 07:59:40;;;;;;;7.33;4.10;;;;;;;;;;5116017;28;20277;-38
2023/11/07 08:02:06;;;;;;;10.18;4.60;;;;;;;;;;5115767;28;20253;-38
2023/11/07 08:04:32;;;;;;;10.07;4.22;;;;;;;;;;5115475;28;20016;-38
2023/11/07 08:06:57;;;;;;;7.55;4.57;;;;;;;;;;5115949;28;20027;-38
2023/11/07 08:09:23;;;;;;;10.10;5.00;;;;;;;;;;5116014;28;20366;-38
2023/11/07 08:11:50;;;;;;;10.30;4.80;;;;;;;;;;5115255;28;20370;-38
2023/11/07 08:14:15;;;;;;;9.68;4.72;;;;;;;;;;5115495;28;20023;-38
2023/11/07 08:16:41;;;;;;;8.25;4.47;;;;;;;;;;5115464;28;20019;-39
2023/11/07 08:19:09;;;;;;;10.60;4.47;;;;;;;;;;5115030;28;20144;-38
2023/11/07 08:21:36;;;;;;;10.07;4.60;;;;;;;;;;5114778;28;20023;-37
2023/11/07 08:24:01;;;;;;;8.68;4.68;;;;;;;;;;5114442;28;20037;-37
2023/11/07 08:26:27;;;;;;;8.75;4.55;;;;;;;;;;5113243;28;20091;-37
2023/11/07 08:28:52;;;;;;;11.13;4.80;;;;;;;;;;5114642;28;20016;-38
2023/11/07 08:31:17;;;;;;;11.00;4.17;;;;;;;;;;5114449;28;20420;-37
2023/11/07 08:33:43;;;;;;;8.33;4.40;;;;;;;;;;5115426;28;20257;-37
2023/11/07 08:36:09;;;;;;;11.70;4.82;;;;;;;;;;5115268;28;20261;-38
2023/11/07 08:38:35;;;;;;;10.77;4.93;;;;;;;;;;5115053;28;20103;-38
2023/11/07 08:41:00;;;;;;;12.70;4.55;;;;;;;;;;5114691;28;20023;-38
2023/11/07 08:43:26;;;;;;;8.73;4.15;;;;;;;;;;5115221;28;20032;-39
2023/11/07 08:45:51;;;;;;;10.45;4.57;;;;;;;;;;5114090;28;20020;-37
2023/11/07 08:48:16;;;;;;;9.77;4.60;;;;;;;;;;5114103;28;20149;-37
2023/11/07 08:50:42;;;;;;;7.43;4.27;;;;;;;;;;5114603;28;20250;-37
2023/11/07 08:53:07;;;;;;;7.73;4.57;;;;;;;;;;5114537;28;20285;-37
2023/11/07 08:55:33;;;;;;;8.23;4.63;;;;;;;;;;5114384;28;20268;-38
2023/11/07 08:57:58;;;;;;;10.57;4.25;;;;;;;;;;5114475;28;20269;-38
2023/11/07 09:00:24;;;;;;;8.35;4.18;;;;;;;;;;5114311;28;20019;-37
2023/11/07 09:02:50;;;;;;;7.40;4.20;;;;;;;;;;5114173;28;20015;-37
2023/11/07 09:05:16;;;;;;;7.47;4.22;;;;;;;;;;5113349;28;20396;-38
2023/11/07 09:07:42;;;;;;;11.18;4.18;;;;;;;;;;5114193;28;20448;-38
2023/11/07 09:10:07;;;;;;;8.23;3.72;;;;;;;;;;5114291;28;20016;-38
2023/11/07 09:12:32;;;;;;;8.68;3.65;;;;;;;;;;5114656;28;20027;-37
2023/11/07 09:14:59;;;;;;;7.60;3.40;;;;;;;;;;5114983;28;20022;-37
2023/11/07 09:17:24;;;;;;;10.35;3.63;;;;;;;;;;5114124;28;20723;-38
2023/11/07 09:19:49;;;;;;;8.48;3.38;;;;;;;;;;5095755;28;20022;-38
2023/11/07 09:22:14;;;;;;;8.27;3.50;;;;;;;;;;5114038;28;20096;-35
2023/11/07 09:24:39;;;;;;;9.67;3.43;;;;;;;;;;5114243;28;20241;-37
2023/11/07 09:27:11;;;;;;;6.60;3.27;;;;;;;;;;5113960;28;20571;-37
2023/11/07 09:29:37;;;;;;;8.85;3.80;;;;;;;;;;5113829;28;20268;-37
2023/11/07 09:32:04;;;;;;;5.68;3.20;;;;;;;;;;5114654;28;20052;-37
2023/11/07 09:34:32;;;;;;;6.47;3.08;;;;;;;;;;5113957;28;20020;-37
2023/11/07 09:36:58;;;;;;;5.10;3.20;;;;;;;;;;5113841;28;20050;-37
2023/11/07 09:39:23;;;;;;;6.55;2.85;;;;;;;;;;5114015;28;20370;-37
2023/11/07 09:41:49;;;;;;;8.63;3.53;;;;;;;;;;5113838;28;20016;-37
2023/11/07 09:44:14;;;;;;;6.60;3.00;;;;;;;;;;5113709;28;20015;-37
2023/11/07 09:46:48;;;;;;;8.63;2.95;;;;;;;;;;5113641;28;20254;-37
2023/11/07 09:49:14;;;;;;;5.82;2.38;;;;;;;;;;5095573;28;20023;-37
2023/11/07 09:51:40;;;;;;;6.53;2.40;;;;;;;;;;5095364;28;20019;-39
2023/11/07 09:54:07;;;;;;;8.55;2.50;;;;;;;;;;5095550;28;20381;-38
2023/11/07 09:56:36;;;;;;;5.80;2.30;;;;;;;;;;5113889;28;20039;-37
2023/11/07 09:59:05;;;;;;;7.32;2.40;;;;;;;;;;5116319;28;20378;-37
2023/11/07 10:01:30;;;;;;;6.35;2.28;;;;;;;;;;5118262;28;20050;-37
2023/11/07 10:03:55;;;;;;;8.10;2.30;;;;;;;;;;5117820;28;20464;-37
2023/11/07 10:06:20;;;;;;;8.07;2.40;;;;;;;;;;5117911;28;20016;-37
2023/11/07 10:08:46;;;;;;;4.87;2.23;;;;;;;;;;5117646;28;20342;-37
2023/11/07 10:11:12;;;;;;;7.07;2.40;;;;;;;;;;5117584;28;20273;-37
2023/11/07 10:13:38;;;;;;;4.93;2.10;;;;;;;;;;5117936;28;20028;-37
2023/11/07 10:16:07;;;;;;;9.40;2.20;;;;;;;;;;5099337;28;20392;-37
2023/11/07 10:18:44;;;;;;;5.72;2.08;;;;;;;;;;5117759;28;20453;-37
2023/11/07 10:21:11;;;;;;;7.35;2.42;;;;;;;;;;5117945;28;20058;-37
2023/11/07 10:23:37;;;;;;;4.85;1.88;;;;;;;;;;5117669;28;20016;-37
2023/11/07 10:26:13;;;;;;;6.25;2.00;;;;;;;;;;5117296;28;20015;-37
2023/11/07 10:28:38;;;;;;;4.00;2.20;;;;;;;;;;5117787;28;20011;-37
2023/11/07 10:31:04;;;;;;;7.72;2.15;;;;;;;;;;5117302;28;20106;-38
2023/11/07 10:33:32;;;;;;;7.80;2.28;;;;;;;;;;5117464;28;20031;-37
2023/11/07 10:36:01;;;;;;;7.10;2.10;;;;;;;;;;5117504;28;20023;-37
2023/11/07 10:38:28;;;;;;;5.28;2.30;;;;;;;;;;5117116;28;20026;-37
2023/11/07 10:40:54;;;;;;;6.32;2.20;;;;;;;;;;5117366;28;20030;-37
2023/11/07 10:43:34;;;;;;;7.00;2.10;;;;;;;;;;5117120;28;20468;-37
2023/11/07 10:46:01;;;;;;;6.40;1.80;;;;;;;;;;5117215;28;20253;-37
2023/11/07 10:48:26;;;;;;;9.20;2.17;;;;;;;;;;5116875;28;20016;-38
2023/11/07 10:50:52;;;;;;;8.15;1.90;;;;;;;;;;5116985;28;20378;-37
2023/11/07 10:53:18;;;;;;;5.05;1.80;;;;;;;;;;5115752;28;20039;-38
2023/11/07 10:55:43;;;;;;;7.43;1.97;;;;;;;;;;5115918;28;20027;-38
2023/11/07 10:58:09;;;;;;;7.68;2.05;;;;;;;;;;5115513;28;20470;-38
2023/11/07 11:00:35;;;;;;;6.82;1.73;;;;;;;;;;5115436;28;20106;-38
2023/11/07 11:03:03;;;;;;;6.90;2.05;;;;;;;;;;5115706;28;20023;-38
2023/11/07 11:05:29;;;;;;;6.93;1.83;;;;;;;;;;5115419;28;20024;-38
2023/11/07 11:07:57;;;;;;;6.32;1.77;;;;;;;;;;5115670;28;20015;-37
2023/11/07 11:10:30;;;;;;;6.90;2.10;;;;;;;;;;5115224;28;20023;-38
2023/11/07 11:12:56;;;;;;;8.63;1.80;;;;;;;;;;5115295;28;20027;-38
2023/11/07 11:15:22;;;;;;;5.80;1.55;;;;;;;;;;5115492;28;20020;-38
2023/11/07 11:17:56;;;;;;;6.13;1.85;;;;;;;;;;5115537;28;20343;-37
2023/11/07 11:20:26;;;;;;;5.95;1.90;;;;;;;;;;5115414;28;20046;-38
2023/11/07 11:23:01;;;;;;;7.15;1.95;;;;;;;;;;5115195;28;20022;-38
2023/11/07 11:25:45;;;;;;;5.45;1.95;;;;;;;;;;5115167;28;20051;-38
2023/11/07 11:28:10;;;;;;;5.50;1.80;;;;;;;;;;5115514;28;20024;-38
2023/11/07 11:30:40;;;;;;;4.03;1.60;;;;;;;;;;5115616;28;20023;-38
2023/11/07 11:33:07;;;;;;;12.98;1.98;;;;;;;;;;5115217;28;20043;-38
2023/11/07 11:35:34;;;;;;;8.55;2.00;;;;;;;;;;5115521;28;20106;-38
2023/11/07 11:38:21;;;;;;;9.77;2.05;;;;;;;;;;5114948;28;20020;-38
2023/11/07 11:40:46;;;;;;;6.38;1.80;;;;;;;;;;5115051;28;20041;-38
2023/11/07 11:43:11;;;;;;;5.27;1.70;;;;;;;;;;5114762;28;20016;-38
2023/11/07 11:45:38;;;;;;;7.55;2.15;;;;;;;;;;5114799;28;20324;-39
2023/11/07 11:48:04;;;;;;;5.25;1.60;;;;;;;;;;5114935;28;20367;-38
2023/11/07 11:50:29;;;;;;;9.00;1.80;;;;;;;;;;5115169;28;20024;-38
2023/11/07 11:52:54;;;;;;;5.55;1.80;;;;;;;;;;5078516;28;1041750;-38
2023/11/07 11:55:19;;;;;;;5.90;1.77;;;;;;;;;;5115953;28;20470;-38
2023/11/07 11:58:08;;;;;;;4.93;1.87;;;;;;;;;;5115392;28;20024;-38
2023/11/07 12:00:37;;;;;;;6.32;1.70;;;;;;;;;;5104472;28;20058;-38
2023/11/07 12:03:08;;;;;;;7.50;1.60;;;;;;;;;;5114311;28;20022;-38
2023/11/07 12:05:33;;;;;;;4.68;1.67;;;;;;;;;;5114933;28;20016;-38
2023/11/07 12:08:19;;;;;;;7.13;1.70;;;;;;;;;;5115964;28;20494;-38
2023/11/07 12:10:54;;;;;;;8.73;1.58;;;;;;;;;;5115218;28;20258;-38
2023/11/07 12:13:23;;;;;;;10.65;1.98;;;;;;;;;;5115190;28;20026;-38
2023/11/07 12:15:48;;;;;;;9.02;2.05;;;;;;;;;;5115487;28;20026;-37
2023/11/07 12:18:15;;;;;;;7.07;1.80;;;;;;;;;;5115044;28;20378;-41
2023/11/07 12:20:41;;;;;;;7.53;1.65;;;;;;;;;;5113648;28;20065;-38
2023/11/07 12:23:11;;;;;;;7.47;1.75;;;;;;;;;;5115344;28;20103;-38
2023/11/07 12:25:47;;;;;;;10.20;1.60;;;;;;;;;;5114979;28;20019;-37
2023/11/07 12:28:12;;;;;;;6.60;1.70;;;;;;;;;;5115801;28;20039;-38
2023/11/07 12:30:37;;;;;;;5.63;1.60;;;;;;;;;;5115513;28;20031;-37
2023/11/07 12:33:04;;;;;;;8.67;1.90;;;;;;;;;;5115004;28;20486;-38
2023/11/07 12:35:30;;;;;;;6.70;1.42;;;;;;;;;;5115053;28;20024;-37
2023/11/07 12:37:57;;;;;;;7.55;1.52;;;;;;;;;;5115124;28;20022;-37
2023/11/07 12:40:23;;;;;;;10.30;1.63;;;;;;;;;;5114959;28;20020;-38
2023/11/07 12:42:52;;;;;;;5.93;1.60;;;;;;;;;;5115121;28;20035;-37
2023/11/07 12:45:25;;;;;;;7.55;1.75;;;;;;;;;;5114953;28;20084;-37
2023/11/07 12:48:00;;;;;;;6.85;1.90;;;;;;;;;;5114908;28;20098;-37
2023/11/07 12:50:33;;;;;;;4.25;1.67;;;;;;;;;;5115116;28;20076;-37
2023/11/07 12:52:59;;;;;;;4.75;1.63;;;;;;;;;;5114522;28;20486;-37
2023/11/07 12:55:28;;;;;;;10.82;2.15;;;;;;;;;;5114519;28;20031;-38
2023/11/07 12:57:56;;;;;;;7.38;1.80;;;;;;;;;;5115168;28;20027;-38
2023/11/07 13:00:21;;;;;;;6.65;1.90;;;;;;;;;;5114608;28;20019;-37
2023/11/07 13:02:47;;;;;;;5.82;1.90;;;;;;;;;;5096103;28;20031;-37
2023/11/07 13:05:13;;;;;;;8.02;1.80;;;;;;;;;;5114376;28;20020;-37
2023/11/07 13:07:38;;;;;;;7.72;1.92;;;;;;;;;;5114333;28;20098;-38
2023/11/07 13:10:14;;;;;;;6.00;2.00;;;;;;;;;;5114790;28;20069;-37
2023/11/07 13:12:39;;;;;;;6.68;1.80;;;;;;;;;;5114065;28;20253;-37
2023/11/07 13:15:04;;;;;;;8.27;1.83;;;;;;;;;;5114063;28;20026;-37
2023/11/07 13:17:30;;;;;;;7.47;2.00;;;;;;;;;;5114406;28;20035;-37
2023/11/07 13:19:55;;;;;;;5.95;1.60;;;;;;;;;;5114205;28;20051;-37
2023/11/07 13:22:20;;;;;;;8.53;1.80;;;;;;;;;;5114128;28;20458;-37
2023/11/07 13:24:46;;;;;;;6.10;1.77;;;;;;;;;;5114332;28;20260;-37
2023/11/07 13:27:12;;;;;;;6.90;2.45;;;;;;;;;;5113922;28;20345;-37
2023/11/07 13:29:37;;;;;;;7.77;4.00;;;;;;;;;;5114565;28;20047;-36
2023/11/07 13:32:05;;;;;;;10.33;2.30;;;;;;;;;;5113839;28;20295;-37
2023/11/07 13:34:30;;;;;;;13.00;3.08;;;;;;;;;;5113801;28;20258;-37
2023/11/07 13:36:55;;;;;;;8.83;2.17;;;;;;;;;;5114194;28;20022;-37
2023/11/07 13:39:23;;;;;;;13.57;3.10;;;;;;;;;;5113892;28;20095;-37
2023/11/07 13:41:49;;;;;;;12.52;3.38;;;;;;;;;;5113974;28;20284;-37
2023/11/07 13:44:14;;;;;;;4.75;2.03;;;;;;;;;;5113894;28;20016;-37
2023/11/07 13:46:40;;;;;;;21.83;9.10;;;;;;;;;;5113657;28;20038;-37
2023/11/07 13:49:08;;;;;;;12.85;4.93;;;;;;;;;;5113970;28;20098;-37
2023/11/07 13:51:34;;;;;;;12.50;2.83;;;;;;;;;;5113880;28;20462;-37
2023/11/07 13:53:59;;;;;;;10.30;4.07;;;;;;;;;;5114049;28;20027;-37
2023/11/07 13:56:25;;;;;;;6.13;1.90;;;;;;;;;;5113724;28;20023;-37
2023/11/07 13:58:53;;;;;;;5.68;2.10;;;;;;;;;;5113979;28;20027;-37
2023/11/07 14:01:18;;;;;;;10.48;2.58;;;;;;;;;;5113814;28;20050;-37
2023/11/07 14:03:44;;;;;;;7.32;2.20;;;;;;;;;;5114018;28;20455;-37
2023/11/07 14:06:09;;;;;;;6.47;1.90;;;;;;;;;;5113514;28;20450;-36
2023/11/07 14:08:35;;;;;;;10.23;2.10;;;;;;;;;;5113944;28;20020;-37
2023/11/07 14:11:00;;;;;;;6.03;2.42;;;;;;;;;;5113501;28;20030;-37
2023/11/07 14:13:25;;;;;;;8.07;3.20;;;;;;;;;;5113378;28;20073;-37
2023/11/07 14:15:52;;;;;;;13.73;3.30;;;;;;;;;;5113618;28;20023;-37
2023/11/07 14:18:19;;;;;;;6.75;2.33;;;;;;;;;;5113545;28;20022;-37
2023/11/07 14:20:47;;;;;;;7.88;2.72;;;;;;;;;;5113728;28;20031;-36
2023/11/07 14:23:13;;;;;;;12.88;3.50;;;;;;;;;;5113397;28;20097;-36
2023/11/07 14:25:38;;;;;;;8.30;2.10;;;;;;;;;;5113442;28;20047;-39
2023/11/07 14:28:09;;;;;;;10.60;2.87;;;;;;;;;;5113894;28;20386;-37
2023/11/07 14:30:43;;;;;;;12.20;2.40;;;;;;;;;;5113114;28;20040;-37
2023/11/07 14:33:08;;;;;;;8.93;2.17;;;;;;;;;;5113285;28;20019;-37